createdAt,value
2018-12-07T00:00:00.433Z,0.00
2018-12-07T00:01:00.464Z,0.00
2018-12-07T00:02:00.550Z,0.00
2018-12-07T00:03:00.579Z,0.00
2018-12-07T00:04:00.563Z,0.00
2018-12-07T00:05:00.599Z,0.00
2018-12-07T00:06:00.934Z,0.00
2018-12-07T00:07:00.821Z,0.00
2018-12-07T00:08:00.750Z,0.00
2018-12-07T00:09:00.728Z,0.00
2018-12-07T00:10:00.758Z,0.00
2018-12-07T00:11:00.839Z,0.00
2018-12-07T00:12:00.822Z,0.00
2018-12-07T00:13:01.149Z,0.00
2018-12-07T00:14:00.883Z,0.00
2018-12-07T00:15:00.969Z,0.00
2018-12-07T00:16:00.999Z,0.00
2018-12-07T00:17:00.997Z,0.00
2018-12-07T00:18:01.063Z,0.00
2018-12-07T00:19:01.413Z,0.00
2018-12-07T00:20:01.129Z,0.00
2018-12-07T00:21:01.111Z,0.00
2018-12-07T00:22:01.143Z,0.00
2018-12-07T00:23:01.225Z,0.00
2018-12-07T00:24:01.249Z,0.00
2018-12-07T00:25:01.537Z,0.00
2018-12-07T00:26:01.271Z,0.00
2018-12-07T00:27:01.355Z,0.00
2018-12-07T00:28:01.339Z,0.00
2018-12-07T00:29:01.425Z,0.00
2018-12-07T00:30:01.401Z,0.00
2018-12-07T00:31:01.826Z,0.00
2018-12-07T00:32:01.458Z,0.00
2018-12-07T00:33:01.539Z,0.00
2018-12-07T00:34:01.523Z,0.00
2018-12-07T00:35:01.605Z,0.00
2018-12-07T00:36:01.638Z,0.00
2018-12-07T00:37:01.664Z,0.00
2018-12-07T00:38:01.987Z,0.00
2018-12-07T00:39:01.731Z,0.00
2018-12-07T00:40:01.771Z,0.00
2018-12-07T00:41:01.801Z,0.00
2018-12-07T00:42:01.781Z,0.00
2018-12-07T00:43:01.859Z,0.00
2018-12-07T00:44:01.838Z,0.00
2018-12-07T00:45:02.176Z,0.00
2018-12-07T00:46:01.907Z,0.00
2018-12-07T00:47:01.999Z,0.00
2018-12-07T00:48:02.016Z,0.00
2018-12-07T00:49:02.007Z,0.00
2018-12-07T00:50:02.041Z,0.00
2018-12-07T00:51:02.121Z,0.00
2018-12-07T00:52:02.400Z,0.00
2018-12-07T00:53:02.131Z,0.00
2018-12-07T00:54:02.159Z,0.00
2018-12-07T00:55:02.191Z,0.00
2018-12-07T00:56:02.230Z,0.00
2018-12-07T00:57:02.308Z,0.00
2018-12-07T00:58:02.289Z,0.00
2018-12-07T00:59:02.674Z,0.00
2018-12-07T01:00:02.358Z,0.00
2018-12-07T01:01:02.393Z,0.00
2018-12-07T01:02:02.473Z,0.00
2018-12-07T01:03:02.503Z,0.00
2018-12-07T01:04:02.485Z,0.00
2018-12-07T01:05:02.511Z,0.00
2018-12-07T01:06:02.847Z,0.00
2018-12-07T01:07:02.633Z,0.00
2018-12-07T01:08:02.667Z,0.00
2018-12-07T01:09:02.643Z,0.00
2018-12-07T01:10:02.725Z,0.00
2018-12-07T01:11:02.767Z,0.00
2018-12-07T01:12:02.794Z,0.00
2018-12-07T01:13:03.067Z,0.00
2018-12-07T01:14:02.808Z,0.00
2018-12-07T01:15:02.856Z,0.00
2018-12-07T01:16:02.864Z,0.00
2018-12-07T01:17:02.902Z,0.00
2018-12-07T01:18:02.935Z,0.00
2018-12-07T01:19:03.019Z,0.00
2018-12-07T01:20:03.351Z,0.00
2018-12-07T01:21:03.084Z,0.00
2018-12-07T01:22:03.064Z,0.00
2018-12-07T01:23:03.090Z,0.00
2018-12-07T01:24:03.176Z,0.00
2018-12-07T01:25:03.153Z,0.00
2018-12-07T01:26:03.190Z,0.00
2018-12-07T01:27:03.567Z,0.00
2018-12-07T01:28:03.307Z,0.00
2018-12-07T01:29:03.285Z,0.00
2018-12-07T01:30:03.362Z,0.00
2018-12-07T01:31:03.395Z,0.00
2018-12-07T01:32:03.428Z,0.00
2018-12-07T01:33:03.412Z,0.00
2018-12-07T01:34:03.748Z,0.00
2018-12-07T01:35:03.495Z,0.00
2018-12-07T01:36:03.566Z,0.00
2018-12-07T01:37:03.536Z,0.00
2018-12-07T01:38:03.623Z,0.00
2018-12-07T01:39:03.607Z,0.00
2018-12-07T01:40:03.639Z,0.00
2018-12-07T01:41:04.020Z,0.00
2018-12-07T01:42:03.755Z,0.00
2018-12-07T01:43:03.795Z,0.00
2018-12-07T01:44:03.831Z,0.00
2018-12-07T01:45:03.791Z,0.00
2018-12-07T01:46:03.835Z,0.00
2018-12-07T01:47:03.871Z,0.00
2018-12-07T01:48:03.940Z,0.00
2018-12-07T01:49:03.972Z,0.00
2018-12-07T01:50:04.003Z,0.00
2018-12-07T01:51:04.039Z,0.00
2018-12-07T01:52:04.025Z,0.00
2018-12-07T01:53:04.103Z,0.00
2018-12-07T01:54:04.388Z,0.00
2018-12-07T01:55:04.170Z,0.00
2018-12-07T01:56:04.193Z,0.00
2018-12-07T01:57:04.182Z,0.00
2018-12-07T01:58:04.268Z,0.00
2018-12-07T01:59:04.294Z,0.00
2018-12-07T02:00:04.572Z,0.00
2018-12-07T02:01:04.309Z,0.00
2018-12-07T02:02:04.391Z,0.00
2018-12-07T02:03:04.374Z,0.00
2018-12-07T02:04:04.407Z,0.00
2018-12-07T02:05:04.483Z,0.00
2018-12-07T02:06:04.830Z,0.00
2018-12-07T02:07:04.551Z,0.00
2018-12-07T02:08:04.577Z,0.00
2018-12-07T02:09:04.612Z,0.00
2018-12-07T02:10:04.656Z,0.00
2018-12-07T02:11:04.680Z,0.00
2018-12-07T02:12:04.715Z,0.00
2018-12-07T02:13:04.991Z,0.00
2018-12-07T02:14:04.850Z,0.00
2018-12-07T02:15:04.822Z,0.00
2018-12-07T02:16:04.845Z,0.00
2018-12-07T02:17:04.884Z,0.00
2018-12-07T02:18:04.899Z,0.00
2018-12-07T02:21:05.245Z,0.00
2018-12-07T02:22:05.026Z,0.00
2018-12-07T02:23:05.166Z,0.00
2018-12-07T02:24:05.089Z,0.00
2018-12-07T02:25:05.072Z,0.00
2018-12-07T02:26:05.165Z,0.00
2018-12-07T02:27:05.497Z,0.00
2018-12-07T02:28:05.220Z,0.00
2018-12-07T02:29:05.202Z,0.00
2018-12-07T02:30:05.293Z,0.00
2018-12-07T02:32:05.359Z,0.00
2018-12-07T02:33:05.338Z,0.00
2018-12-07T02:34:05.661Z,0.00
2018-12-07T02:35:05.441Z,0.00
2018-12-07T02:36:05.539Z,0.00
2018-12-07T02:37:05.513Z,0.00
2018-12-07T02:38:05.543Z,0.00
2018-12-07T02:39:05.570Z,0.00
2018-12-07T02:40:05.560Z,0.00
2018-12-07T02:41:05.941Z,0.00
2018-12-07T02:42:05.672Z,0.00
2018-12-07T02:43:05.655Z,0.00
2018-12-07T02:44:05.703Z,0.00
2018-12-07T02:45:05.715Z,0.00
2018-12-07T02:46:05.797Z,0.00
2018-12-07T02:47:05.826Z,0.00
2018-12-07T02:48:06.115Z,0.00
2018-12-07T02:49:05.841Z,0.00
2018-12-07T02:50:05.889Z,0.00
2018-12-07T02:51:05.955Z,0.00
2018-12-07T02:52:05.992Z,0.00
2018-12-07T02:53:06.025Z,0.00
2018-12-07T02:54:06.012Z,0.00
2018-12-07T02:55:06.393Z,0.00
2018-12-07T02:56:06.065Z,0.00
2018-12-07T02:57:06.153Z,0.00
2018-12-07T02:58:06.134Z,0.00
2018-12-07T02:59:06.219Z,0.00
2018-12-07T03:00:06.544Z,0.00
2018-12-07T03:01:06.234Z,0.00
2018-12-07T03:02:06.315Z,0.00
2018-12-07T03:03:06.348Z,0.00
2018-12-07T03:04:06.319Z,0.00
2018-12-07T03:05:06.410Z,0.00
2018-12-07T03:06:06.444Z,0.00
2018-12-07T03:07:06.421Z,0.00
2018-12-07T03:08:06.916Z,0.00
2018-12-07T03:09:06.541Z,0.00
2018-12-07T03:10:06.516Z,0.00
2018-12-07T03:11:06.595Z,0.00
2018-12-07T03:12:06.584Z,0.00
2018-12-07T03:13:06.611Z,0.00
2018-12-07T03:14:06.755Z,0.00
2018-12-07T03:16:06.763Z,0.00
2018-12-07T03:17:06.895Z,0.00
2018-12-07T03:18:06.770Z,0.00
2018-12-07T03:19:06.868Z,0.00
2018-12-07T03:20:06.897Z,0.00
2018-12-07T03:21:07.222Z,0.00
2018-12-07T03:22:06.951Z,0.00
2018-12-07T03:23:06.985Z,0.00
2018-12-07T03:24:06.987Z,0.00
2018-12-07T03:26:07.035Z,0.00
2018-12-07T03:27:07.365Z,0.00
2018-12-07T03:28:07.145Z,0.00
2018-12-07T03:29:07.187Z,0.00
2018-12-07T03:30:07.158Z,0.00
2018-12-07T03:31:07.254Z,0.00
2018-12-07T03:33:07.256Z,0.00
2018-12-07T03:34:07.589Z,0.00
2018-12-07T03:35:07.368Z,0.00
2018-12-07T03:39:07.448Z,0.00
2018-12-07T03:41:07.809Z,0.00
2018-12-07T03:42:07.556Z,0.00
2018-12-07T03:43:07.576Z,0.00
2018-12-07T03:44:07.603Z,0.00
2018-12-07T03:45:07.697Z,0.00
2018-12-07T03:46:07.671Z,0.00
2018-12-07T03:47:08.003Z,0.00
2018-12-07T03:48:07.793Z,0.00
2018-12-07T03:50:07.849Z,0.00
2018-12-07T03:51:07.880Z,0.00
2018-12-07T03:52:07.913Z,0.00
2018-12-07T03:53:07.892Z,0.00
2018-12-07T03:54:08.234Z,0.00
2018-12-07T03:55:08.010Z,0.00
2018-12-07T03:57:08.093Z,0.00
2018-12-07T03:58:08.107Z,0.00
2018-12-07T03:59:08.153Z,0.00
2018-12-07T04:09:08.459Z,0.00
2018-12-07T04:11:08.528Z,0.00
2018-12-07T04:14:08.628Z,0.00
2018-12-07T04:15:08.652Z,0.00
2018-12-07T04:18:09.042Z,0.00
2018-12-07T04:21:08.795Z,0.00
2018-12-07T04:22:08.825Z,0.00
2018-12-07T04:23:08.910Z,0.00
2018-12-07T04:27:09.363Z,0.00
2018-12-07T04:28:09.075Z,0.00
2018-12-07T04:29:09.100Z,0.00
2018-12-07T04:30:09.083Z,0.00
2018-12-07T04:31:09.162Z,0.00
2018-12-07T04:34:09.271Z,0.00
2018-12-07T04:35:09.549Z,0.00
2018-12-07T04:37:09.352Z,0.00
2018-12-07T04:38:09.343Z,0.00
2018-12-07T04:39:09.423Z,0.00
2018-12-07T04:40:09.407Z,0.00
2018-12-07T04:41:09.795Z,0.00
2018-12-07T04:42:09.517Z,0.00
2018-12-07T04:44:09.587Z,0.00
2018-12-07T04:46:09.591Z,0.00
2018-12-07T04:47:09.988Z,0.00
2018-12-07T04:49:09.751Z,0.00
2018-12-07T04:50:11.234Z,0.00
2018-12-07T04:51:09.810Z,0.00
2018-12-07T04:52:09.835Z,0.00
2018-12-07T04:53:10.175Z,0.00
2018-12-07T04:54:09.902Z,0.00
2018-12-07T04:55:09.936Z,0.00
2018-12-07T04:56:09.964Z,0.00
2018-12-07T04:57:09.951Z,0.00
2018-12-07T04:58:10.033Z,0.00
2018-12-07T04:59:10.066Z,0.00
2018-12-07T05:01:10.425Z,0.00
2018-12-07T05:02:10.177Z,0.00
2018-12-07T05:03:10.198Z,0.00
2018-12-07T05:04:10.223Z,0.00
2018-12-07T05:05:11.212Z,0.00
2018-12-07T05:06:10.242Z,0.00
2018-12-07T05:07:10.580Z,0.00
2018-12-07T05:08:10.354Z,0.00
2018-12-07T05:09:10.338Z,0.00
2018-12-07T05:10:10.421Z,0.00
2018-12-07T05:11:10.452Z,0.00
2018-12-07T05:14:10.558Z,0.00
2018-12-07T05:16:10.913Z,0.00
2018-12-07T05:18:10.675Z,0.00
2018-12-07T05:19:10.710Z,0.00
2018-12-07T05:21:10.730Z,0.00
2018-12-07T05:22:11.059Z,0.00
2018-12-07T05:23:10.893Z,0.00
2018-12-07T05:24:10.870Z,0.00
2018-12-07T05:26:10.881Z,0.00
2018-12-07T05:27:10.962Z,0.00
2018-12-07T05:29:11.036Z,0.00
2018-12-07T05:30:11.326Z,0.00
2018-12-07T05:32:11.124Z,0.00
2018-12-07T05:33:11.116Z,0.00
2018-12-07T05:36:11.577Z,0.00
2018-12-07T05:37:11.234Z,0.00
2018-12-07T05:38:11.272Z,0.00
2018-12-07T05:39:11.349Z,0.00
2018-12-07T05:40:11.333Z,0.00
2018-12-07T05:42:11.450Z,0.00
2018-12-07T05:43:11.797Z,0.00
2018-12-07T05:44:11.459Z,0.00
2018-12-07T05:45:11.502Z,0.00
2018-12-07T05:47:11.561Z,0.00
2018-12-07T05:48:11.642Z,0.00
2018-12-07T05:49:11.618Z,0.00
2018-12-07T05:51:11.990Z,0.00
2018-12-07T05:52:11.769Z,0.00
2018-12-07T05:53:11.755Z,0.00
2018-12-07T05:54:11.884Z,0.00
2018-12-07T05:55:11.868Z,0.00
2018-12-07T05:57:11.882Z,0.00
2018-12-07T05:58:12.208Z,0.00
2018-12-07T05:59:11.996Z,0.00
2018-12-07T06:01:12.053Z,0.00
2018-12-07T06:02:12.094Z,0.00
2018-12-07T06:03:12.124Z,0.00
2018-12-07T06:04:12.155Z,0.00
2018-12-07T06:05:12.433Z,0.00
2018-12-07T06:06:12.239Z,0.00
2018-12-07T06:07:12.351Z,0.00
2018-12-07T06:08:12.283Z,0.00
2018-12-07T06:09:12.310Z,0.00
2018-12-07T06:10:12.300Z,0.00
2018-12-07T06:11:12.487Z,0.00
2018-12-07T06:12:12.362Z,0.00
2018-12-07T06:14:12.486Z,0.00
2018-12-07T06:15:12.513Z,0.00
2018-12-07T06:16:12.559Z,0.00
2018-12-07T06:19:12.637Z,0.00
2018-12-07T06:21:12.946Z,0.00
2018-12-07T06:22:12.737Z,0.00
2018-12-07T06:23:12.849Z,0.00
2018-12-07T06:25:12.842Z,0.00
2018-12-07T06:26:12.863Z,0.00
2018-12-07T06:30:13.251Z,0.00
2018-12-07T06:31:13.034Z,0.00
2018-12-07T06:33:13.085Z,0.00
2018-12-07T06:34:13.065Z,0.00
2018-12-07T06:35:13.148Z,0.00
2018-12-07T06:36:13.491Z,0.00
2018-12-07T06:37:13.175Z,0.00
2018-12-07T06:38:13.545Z,0.00
2018-12-07T06:40:13.313Z,0.00
2018-12-07T06:41:13.349Z,0.00
2018-12-07T06:43:13.704Z,0.00
2018-12-07T06:45:13.479Z,0.00
2018-12-07T06:46:13.452Z,0.00
2018-12-07T06:47:13.548Z,0.00
2018-12-07T06:48:13.526Z,0.00
2018-12-07T06:49:13.599Z,0.00
2018-12-07T06:50:13.593Z,0.00
2018-12-07T06:51:13.668Z,0.00
2018-12-07T06:52:13.644Z,0.00
2018-12-07T06:53:13.760Z,0.00
2018-12-07T06:54:13.711Z,0.00
2018-12-07T06:55:14.043Z,0.00
2018-12-07T06:56:13.773Z,0.00
2018-12-07T06:57:13.861Z,0.00
2018-12-07T06:58:13.842Z,0.00
2018-12-07T06:59:13.930Z,0.00
2018-12-07T07:00:13.908Z,0.00
2018-12-07T07:01:13.932Z,0.00
2018-12-07T07:02:14.271Z,0.00
2018-12-07T07:03:14.059Z,0.00
2018-12-07T07:04:14.036Z,0.00
2018-12-07T07:05:14.071Z,0.00
2018-12-07T07:06:14.098Z,0.00
2018-12-07T07:07:14.237Z,0.00
2018-12-07T07:08:14.216Z,0.00
2018-12-07T07:09:14.204Z,0.00
2018-12-07T07:10:14.232Z,0.00
2018-12-07T07:11:14.321Z,0.00
2018-12-07T07:12:14.343Z,0.00
2018-12-07T07:13:14.375Z,0.00
2018-12-07T07:14:14.413Z,0.00
2018-12-07T07:15:14.699Z,0.00
2018-12-07T07:16:14.418Z,0.00
2018-12-07T07:17:14.454Z,0.00
2018-12-07T07:18:14.485Z,0.00
2018-12-07T07:19:14.768Z,0.00
2018-12-07T07:20:14.605Z,0.00
2018-12-07T07:21:14.877Z,0.00
2018-12-07T07:22:14.629Z,0.00
2018-12-07T07:23:14.691Z,0.00
2018-12-07T07:24:14.730Z,0.00
2018-12-07T07:25:14.719Z,0.00
2018-12-07T07:26:14.744Z,0.00
2018-12-07T07:27:15.126Z,0.00
2018-12-07T07:28:14.857Z,0.00
2018-12-07T07:29:14.950Z,0.00
2018-12-07T07:30:14.893Z,0.00
2018-12-07T07:31:14.949Z,0.00
2018-12-07T07:32:14.986Z,0.00
2018-12-07T07:33:15.396Z,0.00
2018-12-07T07:34:15.004Z,0.00
2018-12-07T07:35:15.089Z,0.00
2018-12-07T07:38:15.186Z,0.00
2018-12-07T07:40:15.244Z,0.00
2018-12-07T07:42:15.272Z,0.00
2018-12-07T07:46:15.437Z,0.00
2018-12-07T07:47:15.471Z,0.00
2018-12-07T07:48:15.447Z,0.00
2018-12-07T07:49:15.483Z,0.00
2018-12-07T07:50:15.520Z,0.00
2018-12-07T07:51:15.561Z,0.00
2018-12-07T07:52:15.638Z,0.00
2018-12-07T07:53:15.912Z,0.00
2018-12-07T07:54:15.645Z,0.00
2018-12-07T07:55:15.733Z,0.00
2018-12-07T07:56:15.809Z,0.00
2018-12-07T07:57:15.759Z,0.00
2018-12-07T07:58:15.776Z,0.00
2018-12-07T07:59:15.857Z,0.00
2018-12-07T08:00:16.135Z,0.00
2018-12-07T08:01:15.926Z,0.00
2018-12-07T08:02:15.899Z,0.00
2018-12-07T08:03:15.997Z,0.00
2018-12-07T08:04:15.961Z,0.00
2018-12-07T08:05:16.048Z,0.00
2018-12-07T08:06:16.086Z,0.00
2018-12-07T08:07:16.413Z,0.00
2018-12-07T08:10:16.208Z,0.00
2018-12-07T08:11:16.253Z,0.00
2018-12-07T08:12:16.220Z,0.00
2018-12-07T08:13:16.257Z,0.00
2018-12-07T08:14:16.313Z,0.00
2018-12-07T08:15:16.372Z,0.00
2018-12-07T08:16:16.409Z,0.00
2018-12-07T08:17:16.514Z,0.00
2018-12-07T08:18:16.421Z,0.00
2018-12-07T08:19:16.505Z,0.00
2018-12-07T08:20:16.490Z,5.63
2018-12-07T08:21:16.563Z,5.63
2018-12-07T08:22:16.592Z,5.63
2018-12-07T08:23:16.634Z,5.63
2018-12-07T08:24:16.610Z,5.63
2018-12-07T08:25:16.702Z,5.63
2018-12-07T08:26:16.677Z,5.63
2018-12-07T08:27:16.805Z,5.63
2018-12-07T08:28:16.741Z,5.63
2018-12-07T08:29:16.774Z,5.63
2018-12-07T08:30:16.808Z,5.63
2018-12-07T08:31:16.883Z,5.63
2018-12-07T08:32:16.869Z,5.63
2018-12-07T08:33:16.955Z,5.63
2018-12-07T08:34:16.940Z,5.63
2018-12-07T08:35:16.966Z,5.63
2018-12-07T08:36:17.038Z,5.63
2018-12-07T08:38:17.059Z,5.63
2018-12-07T08:39:17.403Z,5.63
2018-12-07T08:40:17.129Z,5.63
2018-12-07T08:41:17.157Z,5.63
2018-12-07T08:42:17.243Z,5.63
2018-12-07T08:43:17.277Z,5.63
2018-12-07T08:45:17.286Z,5.63
2018-12-07T08:46:17.326Z,5.63
2018-12-07T08:47:17.403Z,5.63
2018-12-07T08:48:17.437Z,5.63
2018-12-07T08:49:17.414Z,5.63
2018-12-07T08:50:17.505Z,5.63
2018-12-07T08:51:17.533Z,5.63
2018-12-07T08:54:17.935Z,5.63
2018-12-07T08:55:17.666Z,5.63
2018-12-07T08:56:17.651Z,5.63
2018-12-07T08:57:17.754Z,5.63
2018-12-07T08:58:17.710Z,5.63
2018-12-07T08:59:17.793Z,5.63
2018-12-07T09:00:18.117Z,5.63
2018-12-07T09:01:17.800Z,5.63
2018-12-07T09:02:17.853Z,5.63
2018-12-07T09:03:17.918Z,5.63
2018-12-07T09:04:17.895Z,5.63
2018-12-07T09:05:17.983Z,5.63
2018-12-07T09:06:18.015Z,5.63
2018-12-07T09:07:18.301Z,5.63
2018-12-07T09:08:18.116Z,5.63
2018-12-07T09:09:18.061Z,5.63
2018-12-07T09:10:18.139Z,5.63
2018-12-07T09:11:18.276Z,5.63
2018-12-07T09:12:18.208Z,5.63
2018-12-07T09:13:18.193Z,5.63
2018-12-07T09:14:18.524Z,5.63
2018-12-07T09:15:18.307Z,5.63
2018-12-07T09:16:18.354Z,5.63
2018-12-07T09:17:18.324Z,5.63
2018-12-07T09:18:18.359Z,5.63
2018-12-07T09:19:18.438Z,5.63
2018-12-07T09:20:18.468Z,5.63
2018-12-07T09:21:18.749Z,5.63
2018-12-07T09:22:18.488Z,5.63
2018-12-07T09:23:18.570Z,5.63
2018-12-07T09:24:18.543Z,5.63
2018-12-07T09:26:18.663Z,5.63
2018-12-07T09:27:18.698Z,11.25
2018-12-07T09:28:19.033Z,11.25
2018-12-07T09:29:18.710Z,11.25
2018-12-07T09:30:18.786Z,5.63
2018-12-07T09:31:18.829Z,5.63
2018-12-07T09:32:18.864Z,5.63
2018-12-07T09:33:18.840Z,5.63
2018-12-07T09:34:18.871Z,11.25
2018-12-07T09:35:18.948Z,5.63
2018-12-07T09:36:18.995Z,11.25
2018-12-07T09:37:19.023Z,11.25
2018-12-07T09:38:18.999Z,11.25
2018-12-07T09:39:19.184Z,11.25
2018-12-07T09:40:19.120Z,11.25
2018-12-07T09:41:19.402Z,11.25
2018-12-07T09:42:19.131Z,11.25
2018-12-07T09:43:19.206Z,11.25
2018-12-07T09:44:19.200Z,11.25
2018-12-07T09:45:19.274Z,5.63
2018-12-07T09:46:19.301Z,11.25
2018-12-07T09:47:19.293Z,11.25
2018-12-07T09:48:19.735Z,11.25
2018-12-07T09:49:19.375Z,11.25
2018-12-07T09:50:19.383Z,11.25
2018-12-07T09:51:19.484Z,11.25
2018-12-07T09:52:19.457Z,5.63
2018-12-07T09:53:19.536Z,5.63
2018-12-07T09:54:19.512Z,11.25
2018-12-07T09:55:19.597Z,5.63
2018-12-07T09:56:19.573Z,5.63
2018-12-07T09:57:19.614Z,5.63
2018-12-07T09:58:19.729Z,5.63
2018-12-07T09:59:19.672Z,5.63
2018-12-07T10:00:19.704Z,11.25
2018-12-07T10:01:20.042Z,11.25
2018-12-07T10:02:19.953Z,11.25
2018-12-07T10:03:19.861Z,11.25
2018-12-07T10:04:19.890Z,11.25
2018-12-07T10:05:19.867Z,11.25
2018-12-07T10:06:19.900Z,11.25
2018-12-07T10:07:20.300Z,11.25
2018-12-07T10:08:19.967Z,11.25
2018-12-07T10:09:20.045Z,11.25
2018-12-07T10:10:20.135Z,11.25
2018-12-07T10:11:20.126Z,11.25
2018-12-07T10:12:20.144Z,11.25
2018-12-07T10:13:20.154Z,11.25
2018-12-07T10:14:20.215Z,11.25
2018-12-07T10:15:20.248Z,11.25
2018-12-07T10:16:20.295Z,11.25
2018-12-07T10:17:20.357Z,11.25
2018-12-07T10:18:20.395Z,11.25
2018-12-07T10:19:20.677Z,11.25
2018-12-07T10:20:20.405Z,11.25
2018-12-07T10:21:20.400Z,11.25
2018-12-07T10:22:20.418Z,11.25
2018-12-07T10:23:20.501Z,11.25
2018-12-07T10:24:20.535Z,11.25
2018-12-07T10:25:20.569Z,11.25
2018-12-07T10:26:20.854Z,11.25
2018-12-07T10:27:20.639Z,11.25
2018-12-07T10:28:20.666Z,11.25
2018-12-07T10:29:20.667Z,11.25
2018-12-07T10:30:20.682Z,11.25
2018-12-07T10:31:20.770Z,11.25
2018-12-07T10:32:20.794Z,16.88
2018-12-07T10:33:21.090Z,16.88
2018-12-07T10:35:20.908Z,16.88
2018-12-07T10:36:20.947Z,16.88
2018-12-07T10:38:20.987Z,16.88
2018-12-07T10:39:21.028Z,16.88
2018-12-07T10:40:21.056Z,22.50
2018-12-07T10:41:21.091Z,22.50
2018-12-07T10:42:21.073Z,16.88
2018-12-07T10:43:21.157Z,16.88
2018-12-07T10:44:21.183Z,16.88
2018-12-07T10:45:21.216Z,16.88
2018-12-07T10:46:21.251Z,16.88
2018-12-07T10:47:21.342Z,22.50
2018-12-07T10:48:21.429Z,22.50
2018-12-07T10:49:21.306Z,22.50
2018-12-07T10:50:21.408Z,28.13
2018-12-07T10:51:21.419Z,22.50
2018-12-07T10:52:21.863Z,22.50
2018-12-07T10:53:21.480Z,22.50
2018-12-07T10:54:21.561Z,22.50
2018-12-07T10:55:21.550Z,28.13
2018-12-07T10:56:21.575Z,28.13
2018-12-07T10:57:21.618Z,22.50
2018-12-07T10:58:21.587Z,22.50
2018-12-07T10:59:21.693Z,28.13
2018-12-07T11:00:22.969Z,22.50
2018-12-07T11:01:21.756Z,22.50
2018-12-07T11:02:21.840Z,16.88
2018-12-07T11:03:21.810Z,22.50
2018-12-07T11:04:22.086Z,16.88
2018-12-07T11:06:21.896Z,16.88
2018-12-07T11:07:21.937Z,22.50
2018-12-07T11:08:21.959Z,22.50
2018-12-07T11:09:21.950Z,22.50
2018-12-07T11:10:22.036Z,22.50
2018-12-07T11:11:22.057Z,22.50
2018-12-07T11:13:23.385Z,22.50
2018-12-07T11:14:22.116Z,22.50
2018-12-07T11:15:22.199Z,22.50
2018-12-07T11:16:22.175Z,22.50
2018-12-07T11:17:22.503Z,16.88
2018-12-07T11:18:22.298Z,16.88
2018-12-07T11:19:22.318Z,16.88
2018-12-07T11:20:22.362Z,11.25
2018-12-07T11:21:22.398Z,11.25
2018-12-07T11:22:22.428Z,11.25
2018-12-07T11:23:22.461Z,11.25
2018-12-07T11:24:22.787Z,16.88
2018-12-07T11:25:22.469Z,16.88
2018-12-07T11:26:22.557Z,16.88
2018-12-07T11:28:22.616Z,11.25
2018-12-07T11:29:22.595Z,11.25
2018-12-07T11:30:22.647Z,11.25
2018-12-07T11:32:23.054Z,11.25
2018-12-07T11:33:22.800Z,11.25
2018-12-07T11:34:22.812Z,16.88
2018-12-07T11:35:22.797Z,16.88
2018-12-07T11:36:22.878Z,16.88
2018-12-07T11:37:22.938Z,16.88
2018-12-07T11:38:22.948Z,16.88
2018-12-07T11:39:23.227Z,22.50
2018-12-07T11:40:23.013Z,22.50
2018-12-07T11:41:22.989Z,22.50
2018-12-07T11:42:23.024Z,22.50
2018-12-07T11:43:23.203Z,22.50
2018-12-07T11:44:23.087Z,22.50
2018-12-07T11:45:23.227Z,22.50
2018-12-07T11:46:23.509Z,28.13
2018-12-07T11:47:23.255Z,28.13
2018-12-07T11:48:23.372Z,16.88
2018-12-07T11:49:23.245Z,16.88
2018-12-07T11:51:23.371Z,16.88
2018-12-07T11:52:23.392Z,11.25
2018-12-07T11:54:23.765Z,16.88
2018-12-07T11:55:23.502Z,16.88
2018-12-07T11:57:23.561Z,16.88
2018-12-07T11:58:23.545Z,16.88
2018-12-07T11:59:23.629Z,16.88
2018-12-07T12:00:23.709Z,16.88
2018-12-07T12:01:23.634Z,16.88
2018-12-07T12:02:26.456Z,16.88
2018-12-07T12:03:23.765Z,22.50
2018-12-07T12:04:23.740Z,22.50
2018-12-07T12:05:23.821Z,22.50
2018-12-07T12:06:23.812Z,22.50
2018-12-07T12:07:23.889Z,22.50
2018-12-07T12:08:23.964Z,22.50
2018-12-07T12:09:23.949Z,22.50
2018-12-07T12:10:23.987Z,22.50
2018-12-07T12:11:23.964Z,16.88
2018-12-07T12:12:23.996Z,22.50
2018-12-07T12:13:24.098Z,16.88
2018-12-07T12:14:24.113Z,16.88
2018-12-07T12:15:24.148Z,16.88
2018-12-07T12:16:24.133Z,22.50
2018-12-07T12:17:24.158Z,22.50
2018-12-07T12:18:24.198Z,16.88
2018-12-07T12:19:24.223Z,16.88
2018-12-07T12:20:24.313Z,16.88
2018-12-07T12:21:24.292Z,16.88
2018-12-07T12:22:24.374Z,16.88
2018-12-07T12:24:24.391Z,16.88
2018-12-07T12:25:24.466Z,16.88
2018-12-07T12:26:24.618Z,16.88
2018-12-07T12:27:24.551Z,16.88
2018-12-07T12:28:24.578Z,16.88
2018-12-07T12:29:24.550Z,16.88
2018-12-07T12:30:24.583Z,16.88
2018-12-07T12:31:24.925Z,16.88
2018-12-07T12:32:24.712Z,16.88
2018-12-07T12:33:24.747Z,16.88
2018-12-07T12:34:24.729Z,16.88
2018-12-07T12:35:24.802Z,22.50
2018-12-07T12:36:24.828Z,22.50
2018-12-07T12:37:24.823Z,22.50
2018-12-07T12:38:25.162Z,22.50
2018-12-07T12:39:24.932Z,28.13
2018-12-07T12:40:24.962Z,33.75
2018-12-07T12:41:24.997Z,45.00
2018-12-07T12:42:24.975Z,50.63
2018-12-07T12:43:25.059Z,56.25
2018-12-07T12:44:25.110Z,56.25
2018-12-07T12:45:25.376Z,61.88
2018-12-07T12:46:25.159Z,67.50
2018-12-07T12:47:25.191Z,73.13
2018-12-07T12:48:25.171Z,78.75
2018-12-07T12:49:25.259Z,84.38
2018-12-07T12:50:25.244Z,84.38
2018-12-07T12:51:25.269Z,78.75
2018-12-07T12:52:25.660Z,78.75
2018-12-07T12:53:25.389Z,78.75
2018-12-07T12:54:25.436Z,84.38
2018-12-07T12:55:25.460Z,84.38
2018-12-07T12:56:25.431Z,73.13
2018-12-07T12:57:25.519Z,61.88
2018-12-07T12:59:25.643Z,45.00
2018-12-07T13:00:25.574Z,45.00
2018-12-07T13:01:25.656Z,50.63
2018-12-07T13:02:25.677Z,50.63
2018-12-07T13:03:25.671Z,50.63
2018-12-07T13:04:25.746Z,61.88
2018-12-07T13:05:25.726Z,67.50
2018-12-07T13:06:26.065Z,67.50
2018-12-07T13:07:25.797Z,67.50
2018-12-07T13:08:25.827Z,67.50
2018-12-07T13:09:25.907Z,67.50
2018-12-07T13:10:25.947Z,61.88
2018-12-07T13:11:25.975Z,56.25
2018-12-07T13:13:26.105Z,61.88
2018-12-07T13:14:26.031Z,67.50
2018-12-07T13:15:26.117Z,78.75
2018-12-07T13:16:26.157Z,78.75
2018-12-07T13:17:26.182Z,73.13
2018-12-07T13:18:26.160Z,84.38
2018-12-07T13:19:26.196Z,78.75
2018-12-07T13:20:26.281Z,61.88
2018-12-07T13:21:26.258Z,39.38
2018-12-07T13:23:26.442Z,28.13
2018-12-07T13:24:26.360Z,28.13
2018-12-07T13:25:26.434Z,22.50
2018-12-07T13:26:26.774Z,22.50
2018-12-07T13:27:26.524Z,16.88
2018-12-07T13:28:26.550Z,16.88
2018-12-07T13:29:26.519Z,16.88
2018-12-07T13:30:26.606Z,16.88
2018-12-07T13:31:26.588Z,11.25
2018-12-07T13:32:26.974Z,11.25
2018-12-07T13:33:26.660Z,11.25
2018-12-07T13:34:27.002Z,11.25
2018-12-07T13:35:26.779Z,11.25
2018-12-07T13:37:26.789Z,11.25
2018-12-07T13:38:26.819Z,5.63
2018-12-07T13:39:26.924Z,5.63
2018-12-07T13:40:26.930Z,5.63
2018-12-07T13:41:27.638Z,5.63
2018-12-07T13:42:27.073Z,5.63
2018-12-07T13:43:27.136Z,5.63
2018-12-07T13:44:27.516Z,5.63
2018-12-07T13:45:27.261Z,5.63
2018-12-07T13:46:27.299Z,5.63
2018-12-07T13:47:27.346Z,5.63
2018-12-07T13:48:27.315Z,5.63
2018-12-07T13:49:27.414Z,5.63
2018-12-07T13:50:27.239Z,5.63
2018-12-07T13:51:27.288Z,11.25
2018-12-07T13:52:27.428Z,11.25
2018-12-07T13:53:27.466Z,5.63
2018-12-07T13:54:27.427Z,5.63
2018-12-07T13:55:27.557Z,5.63
2018-12-07T13:56:27.469Z,5.63
2018-12-07T13:57:27.602Z,5.63
2018-12-07T13:58:27.525Z,5.63
2018-12-07T13:59:27.578Z,11.25
2018-12-07T14:00:27.627Z,11.25
2018-12-07T14:01:27.637Z,11.25
2018-12-07T14:02:27.833Z,11.25
2018-12-07T14:03:27.820Z,11.25
2018-12-07T14:04:27.739Z,11.25
2018-12-07T14:05:32.265Z,16.88
2018-12-07T14:06:27.792Z,11.25
2018-12-07T14:07:27.832Z,11.25
2018-12-07T14:08:27.857Z,11.25
2018-12-07T14:09:28.281Z,5.63
2018-12-07T14:10:27.966Z,5.63
2018-12-07T14:11:28.109Z,5.63
2018-12-07T14:12:28.184Z,5.63
2018-12-07T14:14:28.255Z,0.00
2018-12-07T14:15:28.880Z,0.00
2018-12-07T14:16:28.339Z,0.00
2018-12-07T14:17:28.252Z,0.00
2018-12-07T14:18:28.241Z,0.00
2018-12-07T14:19:28.222Z,0.00
2018-12-07T14:20:28.405Z,0.00
2018-12-07T14:21:28.556Z,0.00
2018-12-07T14:22:28.485Z,0.00
2018-12-07T14:23:28.326Z,0.00
2018-12-07T14:24:28.504Z,0.00
2018-12-07T14:25:28.715Z,0.00
2018-12-07T14:26:28.519Z,0.00
2018-12-07T14:27:28.795Z,0.00
2018-12-07T14:28:28.724Z,0.00
2018-12-07T14:29:29.756Z,0.00
2018-12-07T14:30:28.594Z,0.00
2018-12-07T14:31:28.611Z,0.00
2018-12-07T14:32:28.728Z,0.00
2018-12-07T14:33:28.703Z,0.00
2018-12-07T14:34:28.917Z,0.00
2018-12-07T14:35:28.854Z,0.00
2018-12-07T14:36:28.777Z,0.00
2018-12-07T14:37:28.965Z,0.00
2018-12-07T14:38:28.886Z,0.00
2018-12-07T14:39:28.955Z,0.00
2018-12-07T14:40:28.929Z,0.00
2018-12-07T14:41:28.919Z,0.00
2018-12-07T14:42:29.016Z,0.00
2018-12-07T14:43:29.158Z,0.00
2018-12-07T14:44:29.846Z,0.00